Terminal Aerodrome Forecast
Issued by NWS

Home | Current Version | Previous Version | Text Only | Print | Product List | Glossary On
Versions: 1 2 3 4 5 6 7 8 9 10 11 12 13 14 15 16 17 18 19 20 21 22 23 24 25 26
000
FTUS41 KBUF 191100
TAFIAG
TAF
KIAG 191139Z 1912/2012 11005KT P6SM SCT025 BKN220
      TEMPO 1912/1914 BKN025
     FM191400 11010KT P6SM FEW250
     FM192000 13006KT P6SM SKC
     FM200500 18010KT P6SM SCT250 WS020/22045KT
     FM201000 20012G20KT P6SM BKN200=

USA.gov is the U.S. government's official web portal to all federal, state and local government web resources and services.